sensor_id;sensor_type;location;lat;lon;timestamp;P1;durP1;ratioP1;P2;durP2;ratioP2
14992;SDS011;7592;51.088;13.732;2023-06-01T00:04:39;6.90;;;3.10;;
14992;SDS011;7592;51.088;13.732;2023-06-01T00:09:32;3.47;;;3.10;;
14992;SDS011;7592;51.088;13.732;2023-06-01T00:14:24;3.27;;;2.90;;
14992;SDS011;7592;51.088;13.732;2023-06-01T00:19:16;3.17;;;2.77;;
14992;SDS011;7592;51.088;13.732;2023-06-01T00:24:09;4.63;;;2.93;;
14992;SDS011;7592;51.088;13.732;2023-06-01T00:29:01;4.53;;;3.43;;
14992;SDS011;7592;51.088;13.732;2023-06-01T00:33:53;2.90;;;2.50;;
14992;SDS011;7592;51.088;13.732;2023-06-01T00:38:45;3.33;;;2.93;;
14992;SDS011;7592;51.088;13.732;2023-06-01T00:43:37;3.27;;;2.70;;
14992;SDS011;7592;51.088;13.732;2023-06-01T00:48:29;3.50;;;3.20;;
14992;SDS011;7592;51.088;13.732;2023-06-01T00:53:23;3.87;;;3.07;;
14992;SDS011;7592;51.088;13.732;2023-06-01T00:58:16;5.13;;;3.07;;
14992;SDS011;7592;51.088;13.732;2023-06-01T01:03:09;5.67;;;3.30;;
14992;SDS011;7592;51.088;13.732;2023-06-01T01:14:30;3.60;;;3.00;;
14992;SDS011;7592;51.088;13.732;2023-06-01T01:30:08;4.17;;;2.87;;
14992;SDS011;7592;51.088;13.732;2023-06-01T01:35:02;5.47;;;3.20;;
14992;SDS011;7592;51.088;13.732;2023-06-01T01:40:00;3.17;;;2.87;;
14992;SDS011;7592;51.088;13.732;2023-06-01T01:44:53;3.03;;;2.80;;
14992;SDS011;7592;51.088;13.732;2023-06-01T01:49:48;5.57;;;3.03;;
14992;SDS011;7592;51.088;13.732;2023-06-01T01:54:45;3.40;;;3.00;;
14992;SDS011;7592;51.088;13.732;2023-06-01T01:59:38;5.43;;;3.10;;
14992;SDS011;7592;51.088;13.732;2023-06-01T02:04:37;5.27;;;2.87;;
14992;SDS011;7592;51.088;13.732;2023-06-01T02:09:33;4.20;;;2.90;;
14992;SDS011;7592;51.088;13.732;2023-06-01T02:14:28;3.50;;;2.90;;
14992;SDS011;7592;51.088;13.732;2023-06-01T02:19:20;6.10;;;3.40;;
14992;SDS011;7592;51.088;13.732;2023-06-01T02:24:13;5.13;;;2.77;;
14992;SDS011;7592;51.088;13.732;2023-06-01T02:29:05;3.37;;;2.73;;
14992;SDS011;7592;51.088;13.732;2023-06-01T02:33:57;6.13;;;3.23;;
14992;SDS011;7592;51.088;13.732;2023-06-01T02:38:51;5.03;;;2.90;;
14992;SDS011;7592;51.088;13.732;2023-06-01T02:43:47;5.23;;;3.50;;
14992;SDS011;7592;51.088;13.732;2023-06-01T02:48:42;4.53;;;3.27;;
14992;SDS011;7592;51.088;13.732;2023-06-01T02:53:34;5.17;;;3.60;;
14992;SDS011;7592;51.088;13.732;2023-06-01T02:58:31;4.53;;;3.23;;
14992;SDS011;7592;51.088;13.732;2023-06-01T03:03:47;6.90;;;3.50;;
14992;SDS011;7592;51.088;13.732;2023-06-01T03:08:40;4.93;;;3.30;;
14992;SDS011;7592;51.088;13.732;2023-06-01T03:13:38;3.93;;;3.23;;
14992;SDS011;7592;51.088;13.732;2023-06-01T03:18:30;3.07;;;2.77;;
14992;SDS011;7592;51.088;13.732;2023-06-01T03:23:22;5.50;;;2.90;;
14992;SDS011;7592;51.088;13.732;2023-06-01T03:28:15;5.00;;;2.80;;
14992;SDS011;7592;51.088;13.732;2023-06-01T03:33:07;4.63;;;3.00;;
14992;SDS011;7592;51.088;13.732;2023-06-01T03:38:00;3.83;;;2.77;;
14992;SDS011;7592;51.088;13.732;2023-06-01T03:42:52;3.70;;;3.07;;
14992;SDS011;7592;51.088;13.732;2023-06-01T03:47:44;3.73;;;3.43;;
14992;SDS011;7592;51.088;13.732;2023-06-01T03:52:37;5.13;;;2.87;;
14992;SDS011;7592;51.088;13.732;2023-06-01T03:57:30;3.87;;;3.20;;
14992;SDS011;7592;51.088;13.732;2023-06-01T04:02:22;4.17;;;3.60;;
14992;SDS011;7592;51.088;13.732;2023-06-01T04:07:15;4.03;;;3.20;;
14992;SDS011;7592;51.088;13.732;2023-06-01T04:12:10;4.37;;;3.37;;
14992;SDS011;7592;51.088;13.732;2023-06-01T04:17:03;6.43;;;3.10;;
14992;SDS011;7592;51.088;13.732;2023-06-01T04:21:58;6.07;;;3.30;;
14992;SDS011;7592;51.088;13.732;2023-06-01T04:26:52;7.73;;;4.33;;
14992;SDS011;7592;51.088;13.732;2023-06-01T04:31:46;4.87;;;2.73;;
14992;SDS011;7592;51.088;13.732;2023-06-01T04:36:38;4.17;;;3.00;;
14992;SDS011;7592;51.088;13.732;2023-06-01T04:41:32;6.20;;;3.33;;
14992;SDS011;7592;51.088;13.732;2023-06-01T04:46:26;6.33;;;3.03;;
14992;SDS011;7592;51.088;13.732;2023-06-01T04:51:22;6.97;;;3.07;;
14992;SDS011;7592;51.088;13.732;2023-06-01T04:56:18;4.03;;;3.07;;
14992;SDS011;7592;51.088;13.732;2023-06-01T05:01:11;3.83;;;3.53;;
14992;SDS011;7592;51.088;13.732;2023-06-01T05:06:08;6.33;;;3.03;;
14992;SDS011;7592;51.088;13.732;2023-06-01T05:11:04;5.03;;;3.07;;
14992;SDS011;7592;51.088;13.732;2023-06-01T05:15:57;5.30;;;3.00;;
14992;SDS011;7592;51.088;13.732;2023-06-01T05:20:51;8.35;;;5.50;;
14992;SDS011;7592;51.088;13.732;2023-06-01T05:25:43;7.90;;;3.50;;
14992;SDS011;7592;51.088;13.732;2023-06-01T05:30:36;5.85;;;3.13;;
14992;SDS011;7592;51.088;13.732;2023-06-01T05:35:28;8.35;;;3.25;;
14992;SDS011;7592;51.088;13.732;2023-06-01T05:40:21;5.82;;;2.97;;
14992;SDS011;7592;51.088;13.732;2023-06-01T05:45:13;3.33;;;2.85;;
14992;SDS011;7592;51.088;13.732;2023-06-01T05:50:06;4.72;;;3.55;;
14992;SDS011;7592;51.088;13.732;2023-06-01T05:55:00;3.67;;;3.38;;
14992;SDS011;7592;51.088;13.732;2023-06-01T05:59:54;7.88;;;3.03;;
14992;SDS011;7592;51.088;13.732;2023-06-01T06:04:46;2.80;;;2.60;;
14992;SDS011;7592;51.088;13.732;2023-06-01T06:09:39;5.20;;;2.67;;
14992;SDS011;7592;51.088;13.732;2023-06-01T06:14:32;5.95;;;2.92;;
14992;SDS011;7592;51.088;13.732;2023-06-01T06:19:25;5.10;;;2.85;;
14992;SDS011;7592;51.088;13.732;2023-06-01T06:24:18;74.90;;;6.88;;
14992;SDS011;7592;51.088;13.732;2023-06-01T06:29:10;4.13;;;2.53;;
14992;SDS011;7592;51.088;13.732;2023-06-01T06:34:02;4.53;;;2.83;;
14992;SDS011;7592;51.088;13.732;2023-06-01T06:38:54;3.78;;;2.63;;
14992;SDS011;7592;51.088;13.732;2023-06-01T06:43:47;7.13;;;2.45;;
14992;SDS011;7592;51.088;13.732;2023-06-01T06:48:39;2.80;;;2.28;;
14992;SDS011;7592;51.088;13.732;2023-06-01T06:53:31;4.30;;;2.50;;
14992;SDS011;7592;51.088;13.732;2023-06-01T06:58:24;3.95;;;2.75;;
14992;SDS011;7592;51.088;13.732;2023-06-01T07:03:17;4.03;;;2.58;;
14992;SDS011;7592;51.088;13.732;2023-06-01T07:08:10;8.07;;;2.88;;
14992;SDS011;7592;51.088;13.732;2023-06-01T07:13:02;2.95;;;2.60;;
14992;SDS011;7592;51.088;13.732;2023-06-01T07:17:54;3.42;;;2.67;;
14992;SDS011;7592;51.088;13.732;2023-06-01T07:22:47;5.32;;;3.00;;
14992;SDS011;7592;51.088;13.732;2023-06-01T07:27:41;5.60;;;3.22;;
14992;SDS011;7592;51.088;13.732;2023-06-01T07:32:35;6.05;;;3.40;;
14992;SDS011;7592;51.088;13.732;2023-06-01T07:37:28;3.95;;;2.65;;
14992;SDS011;7592;51.088;13.732;2023-06-01T07:42:20;7.53;;;3.38;;
14992;SDS011;7592;51.088;13.732;2023-06-01T07:47:12;3.28;;;2.45;;
14992;SDS011;7592;51.088;13.732;2023-06-01T07:52:04;5.15;;;3.65;;
14992;SDS011;7592;51.088;13.732;2023-06-01T07:56:57;8.40;;;2.92;;
14992;SDS011;7592;51.088;13.732;2023-06-01T08:01:50;3.60;;;2.60;;
14992;SDS011;7592;51.088;13.732;2023-06-01T08:06:43;8.30;;;3.38;;
14992;SDS011;7592;51.088;13.732;2023-06-01T08:11:35;6.32;;;3.38;;
14992;SDS011;7592;51.088;13.732;2023-06-01T08:16:28;6.40;;;2.92;;
14992;SDS011;7592;51.088;13.732;2023-06-01T08:21:21;6.45;;;3.40;;
14992;SDS011;7592;51.088;13.732;2023-06-01T08:26:15;4.05;;;2.50;;
14992;SDS011;7592;51.088;13.732;2023-06-01T08:31:07;7.00;;;2.60;;
14992;SDS011;7592;51.088;13.732;2023-06-01T08:35:59;5.60;;;2.72;;
14992;SDS011;7592;51.088;13.732;2023-06-01T08:40:52;6.28;;;3.55;;
14992;SDS011;7592;51.088;13.732;2023-06-01T08:45:44;66.78;;;5.93;;
14992;SDS011;7592;51.088;13.732;2023-06-01T08:50:39;7.30;;;2.60;;
14992;SDS011;7592;51.088;13.732;2023-06-01T08:55:32;4.47;;;3.58;;
14992;SDS011;7592;51.088;13.732;2023-06-01T09:00:25;3.90;;;2.63;;
14992;SDS011;7592;51.088;13.732;2023-06-01T09:05:18;3.85;;;2.60;;
14992;SDS011;7592;51.088;13.732;2023-06-01T09:10:10;6.80;;;2.40;;
14992;SDS011;7592;51.088;13.732;2023-06-01T09:15:13;6.43;;;2.63;;
14992;SDS011;7592;51.088;13.732;2023-06-01T09:20:22;3.47;;;2.70;;
14992;SDS011;7592;51.088;13.732;2023-06-01T09:25:23;3.47;;;2.50;;
14992;SDS011;7592;51.088;13.732;2023-06-01T09:30:20;3.67;;;2.63;;
14992;SDS011;7592;51.088;13.732;2023-06-01T09:40:43;3.10;;;2.80;;
14992;SDS011;7592;51.088;13.732;2023-06-01T09:46:03;5.28;;;3.22;;
14992;SDS011;7592;51.088;13.732;2023-06-01T09:51:00;5.85;;;3.58;;
14992;SDS011;7592;51.088;13.732;2023-06-01T09:55:57;3.53;;;3.22;;
14992;SDS011;7592;51.088;13.732;2023-06-01T10:00:51;4.75;;;3.47;;
14992;SDS011;7592;51.088;13.732;2023-06-01T10:05:44;3.95;;;3.40;;
14992;SDS011;7592;51.088;13.732;2023-06-01T10:10:38;3.92;;;3.38;;
14992;SDS011;7592;51.088;13.732;2023-06-01T10:15:31;3.47;;;3.17;;
14992;SDS011;7592;51.088;13.732;2023-06-01T10:20:23;5.38;;;2.80;;
14992;SDS011;7592;51.088;13.732;2023-06-01T10:25:17;3.70;;;3.45;;
14992;SDS011;7592;51.088;13.732;2023-06-01T10:30:13;5.68;;;3.17;;
14992;SDS011;7592;51.088;13.732;2023-06-01T10:35:06;5.55;;;3.38;;
14992;SDS011;7592;51.088;13.732;2023-06-01T10:50:33;4.95;;;2.60;;
14992;SDS011;7592;51.088;13.732;2023-06-01T10:55:27;2.53;;;2.33;;
14992;SDS011;7592;51.088;13.732;2023-06-01T11:21:11;4.30;;;2.85;;
14992;SDS011;7592;51.088;13.732;2023-06-01T11:26:13;5.80;;;3.30;;
14992;SDS011;7592;51.088;13.732;2023-06-01T11:31:10;4.63;;;2.65;;
14992;SDS011;7592;51.088;13.732;2023-06-01T11:36:04;4.53;;;2.67;;
14992;SDS011;7592;51.088;13.732;2023-06-01T11:41:00;3.25;;;2.50;;
14992;SDS011;7592;51.088;13.732;2023-06-01T11:46:00;5.03;;;3.00;;
14992;SDS011;7592;51.088;13.732;2023-06-01T11:51:16;6.20;;;3.55;;
14992;SDS011;7592;51.088;13.732;2023-06-01T11:56:09;4.93;;;3.30;;
14992;SDS011;7592;51.088;13.732;2023-06-01T12:01:01;4.23;;;3.07;;
14992;SDS011;7592;51.088;13.732;2023-06-01T12:05:55;13.93;;;3.80;;
14992;SDS011;7592;51.088;13.732;2023-06-01T12:10:48;6.03;;;2.73;;
14992;SDS011;7592;51.088;13.732;2023-06-01T12:15:42;3.83;;;2.90;;
14992;SDS011;7592;51.088;13.732;2023-06-01T12:20:39;3.97;;;2.90;;
14992;SDS011;7592;51.088;13.732;2023-06-01T12:25:36;4.03;;;3.63;;
14992;SDS011;7592;51.088;13.732;2023-06-01T12:30:29;4.93;;;4.30;;
14992;SDS011;7592;51.088;13.732;2023-06-01T12:35:21;4.10;;;3.70;;
14992;SDS011;7592;51.088;13.732;2023-06-01T12:40:21;6.50;;;4.20;;
14992;SDS011;7592;51.088;13.732;2023-06-01T12:45:15;6.83;;;4.90;;
14992;SDS011;7592;51.088;13.732;2023-06-01T12:50:08;6.90;;;4.23;;
14992;SDS011;7592;51.088;13.732;2023-06-01T12:55:04;6.83;;;4.27;;
14992;SDS011;7592;51.088;13.732;2023-06-01T12:59:57;5.13;;;4.50;;
14992;SDS011;7592;51.088;13.732;2023-06-01T13:04:51;5.87;;;3.77;;
14992;SDS011;7592;51.088;13.732;2023-06-01T13:09:44;5.37;;;4.50;;
14992;SDS011;7592;51.088;13.732;2023-06-01T13:14:38;5.40;;;4.73;;
14992;SDS011;7592;51.088;13.732;2023-06-01T13:19:30;7.10;;;4.77;;
14992;SDS011;7592;51.088;13.732;2023-06-01T13:24:22;7.10;;;4.57;;
14992;SDS011;7592;51.088;13.732;2023-06-01T13:29:14;8.97;;;4.60;;
14992;SDS011;7592;51.088;13.732;2023-06-01T13:34:06;6.73;;;5.60;;
14992;SDS011;7592;51.088;13.732;2023-06-01T13:38:59;6.03;;;4.63;;
14992;SDS011;7592;51.088;13.732;2023-06-01T13:43:52;7.73;;;5.33;;
14992;SDS011;7592;51.088;13.732;2023-06-01T13:48:44;12.03;;;10.37;;
14992;SDS011;7592;51.088;13.732;2023-06-01T13:53:36;11.23;;;6.00;;
14992;SDS011;7592;51.088;13.732;2023-06-01T13:58:29;5.80;;;5.23;;
14992;SDS011;7592;51.088;13.732;2023-06-01T14:03:22;8.27;;;5.20;;
14992;SDS011;7592;51.088;13.732;2023-06-01T14:08:14;7.57;;;6.40;;
14992;SDS011;7592;51.088;13.732;2023-06-01T14:13:06;7.77;;;5.57;;
14992;SDS011;7592;51.088;13.732;2023-06-01T14:17:58;5.80;;;5.30;;
14992;SDS011;7592;51.088;13.732;2023-06-01T14:22:51;5.93;;;5.40;;
14992;SDS011;7592;51.088;13.732;2023-06-01T14:27:43;9.83;;;4.90;;
14992;SDS011;7592;51.088;13.732;2023-06-01T14:32:35;4.90;;;4.47;;
14992;SDS011;7592;51.088;13.732;2023-06-01T14:37:27;4.90;;;4.20;;
14992;SDS011;7592;51.088;13.732;2023-06-01T14:42:38;4.77;;;4.13;;
14992;SDS011;7592;51.088;13.732;2023-06-01T14:47:31;7.03;;;3.93;;
14992;SDS011;7592;51.088;13.732;2023-06-01T14:52:24;8.73;;;4.40;;
14992;SDS011;7592;51.088;13.732;2023-06-01T14:57:16;3.30;;;3.10;;
14992;SDS011;7592;51.088;13.732;2023-06-01T15:02:08;3.00;;;2.80;;
14992;SDS011;7592;51.088;13.732;2023-06-01T15:07:01;4.10;;;2.90;;
14992;SDS011;7592;51.088;13.732;2023-06-01T15:11:53;5.87;;;3.30;;
14992;SDS011;7592;51.088;13.732;2023-06-01T15:16:45;3.93;;;3.47;;
14992;SDS011;7592;51.088;13.732;2023-06-01T15:21:37;3.53;;;3.23;;
14992;SDS011;7592;51.088;13.732;2023-06-01T15:26:30;4.77;;;4.23;;
14992;SDS011;7592;51.088;13.732;2023-06-01T15:31:22;3.97;;;3.67;;
14992;SDS011;7592;51.088;13.732;2023-06-01T15:36:14;4.57;;;3.90;;
14992;SDS011;7592;51.088;13.732;2023-06-01T15:41:07;4.37;;;3.67;;
14992;SDS011;7592;51.088;13.732;2023-06-01T15:45:59;6.07;;;4.37;;
14992;SDS011;7592;51.088;13.732;2023-06-01T15:50:51;6.17;;;4.87;;
14992;SDS011;7592;51.088;13.732;2023-06-01T15:55:43;4.53;;;4.10;;
14992;SDS011;7592;51.088;13.732;2023-06-01T16:00:36;4.30;;;3.90;;
14992;SDS011;7592;51.088;13.732;2023-06-01T16:05:28;4.47;;;4.03;;
14992;SDS011;7592;51.088;13.732;2023-06-01T16:10:21;5.80;;;3.90;;
14992;SDS011;7592;51.088;13.732;2023-06-01T16:15:13;6.63;;;4.13;;
14992;SDS011;7592;51.088;13.732;2023-06-01T16:20:05;5.00;;;4.20;;
14992;SDS011;7592;51.088;13.732;2023-06-01T16:24:58;6.83;;;3.70;;
14992;SDS011;7592;51.088;13.732;2023-06-01T16:29:51;4.93;;;2.80;;
14992;SDS011;7592;51.088;13.732;2023-06-01T16:34:43;4.07;;;2.20;;
14992;SDS011;7592;51.088;13.732;2023-06-01T16:39:35;2.87;;;2.63;;
14992;SDS011;7592;51.088;13.732;2023-06-01T16:44:27;3.67;;;2.90;;
14992;SDS011;7592;51.088;13.732;2023-06-01T16:49:19;5.83;;;3.63;;
14992;SDS011;7592;51.088;13.732;2023-06-01T16:54:11;4.60;;;3.67;;
14992;SDS011;7592;51.088;13.732;2023-06-01T16:59:04;4.07;;;3.70;;
14992;SDS011;7592;51.088;13.732;2023-06-01T17:03:57;6.43;;;3.93;;
14992;SDS011;7592;51.088;13.732;2023-06-01T17:08:49;3.87;;;3.60;;
14992;SDS011;7592;51.088;13.732;2023-06-01T17:13:41;4.97;;;3.83;;
14992;SDS011;7592;51.088;13.732;2023-06-01T17:18:33;5.20;;;3.67;;
14992;SDS011;7592;51.088;13.732;2023-06-01T17:23:26;4.13;;;3.83;;
14992;SDS011;7592;51.088;13.732;2023-06-01T17:28:20;5.23;;;3.90;;
14992;SDS011;7592;51.088;13.732;2023-06-01T17:33:12;3.93;;;3.60;;
14992;SDS011;7592;51.088;13.732;2023-06-01T17:38:04;6.57;;;3.70;;
14992;SDS011;7592;51.088;13.732;2023-06-01T17:42:56;5.87;;;3.87;;
14992;SDS011;7592;51.088;13.732;2023-06-01T17:47:49;4.67;;;3.70;;
14992;SDS011;7592;51.088;13.732;2023-06-01T17:52:41;5.90;;;3.40;;
14992;SDS011;7592;51.088;13.732;2023-06-01T17:57:33;3.73;;;3.43;;
14992;SDS011;7592;51.088;13.732;2023-06-01T18:02:25;4.23;;;3.40;;
14992;SDS011;7592;51.088;13.732;2023-06-01T18:07:17;3.47;;;3.17;;
14992;SDS011;7592;51.088;13.732;2023-06-01T18:12:09;4.83;;;3.40;;
14992;SDS011;7592;51.088;13.732;2023-06-01T18:17:01;3.57;;;3.27;;
14992;SDS011;7592;51.088;13.732;2023-06-01T18:21:54;5.07;;;3.40;;
14992;SDS011;7592;51.088;13.732;2023-06-01T18:26:46;4.20;;;3.60;;
14992;SDS011;7592;51.088;13.732;2023-06-01T18:31:38;3.47;;;3.23;;
14992;SDS011;7592;51.088;13.732;2023-06-01T18:36:32;5.07;;;3.03;;
14992;SDS011;7592;51.088;13.732;2023-06-01T18:41:25;5.80;;;3.73;;
14992;SDS011;7592;51.088;13.732;2023-06-01T18:46:17;4.63;;;3.43;;
14992;SDS011;7592;51.088;13.732;2023-06-01T18:51:10;5.00;;;3.30;;
14992;SDS011;7592;51.088;13.732;2023-06-01T18:56:03;4.33;;;3.90;;
14992;SDS011;7592;51.088;13.732;2023-06-01T19:00:56;5.23;;;3.37;;
14992;SDS011;7592;51.088;13.732;2023-06-01T19:05:48;4.10;;;3.70;;
14992;SDS011;7592;51.088;13.732;2023-06-01T19:15:38;5.37;;;3.93;;
14992;SDS011;7592;51.088;13.732;2023-06-01T19:20:56;5.70;;;3.73;;
14992;SDS011;7592;51.088;13.732;2023-06-01T19:26:06;10.67;;;7.40;;
14992;SDS011;7592;51.088;13.732;2023-06-01T19:30:59;6.40;;;4.87;;
14992;SDS011;7592;51.088;13.732;2023-06-01T19:35:52;5.53;;;4.73;;
14992;SDS011;7592;51.088;13.732;2023-06-01T19:40:44;5.13;;;4.33;;
14992;SDS011;7592;51.088;13.732;2023-06-01T19:45:36;4.87;;;4.37;;
14992;SDS011;7592;51.088;13.732;2023-06-01T19:55:22;12.23;;;9.33;;
14992;SDS011;7592;51.088;13.732;2023-06-01T20:00:14;15.53;;;13.60;;
14992;SDS011;7592;51.088;13.732;2023-06-01T20:05:06;8.13;;;6.63;;
14992;SDS011;7592;51.088;13.732;2023-06-01T20:09:59;6.77;;;5.07;;
14992;SDS011;7592;51.088;13.732;2023-06-01T20:14:51;14.83;;;13.27;;
14992;SDS011;7592;51.088;13.732;2023-06-01T20:19:43;10.20;;;9.03;;
14992;SDS011;7592;51.088;13.732;2023-06-01T20:24:35;8.13;;;6.20;;
14992;SDS011;7592;51.088;13.732;2023-06-01T20:29:28;7.73;;;5.60;;
14992;SDS011;7592;51.088;13.732;2023-06-01T20:34:23;5.40;;;4.90;;
14992;SDS011;7592;51.088;13.732;2023-06-01T20:39:16;5.60;;;4.53;;
14992;SDS011;7592;51.088;13.732;2023-06-01T20:44:09;6.87;;;5.23;;
14992;SDS011;7592;51.088;13.732;2023-06-01T20:49:02;5.77;;;5.13;;
14992;SDS011;7592;51.088;13.732;2023-06-01T20:54:08;7.20;;;4.40;;
14992;SDS011;7592;51.088;13.732;2023-06-01T20:59:10;6.80;;;4.30;;
14992;SDS011;7592;51.088;13.732;2023-06-01T21:04:07;7.33;;;5.00;;
14992;SDS011;7592;51.088;13.732;2023-06-01T21:09:04;7.90;;;4.47;;
14992;SDS011;7592;51.088;13.732;2023-06-01T21:14:01;4.97;;;3.80;;
14992;SDS011;7592;51.088;13.732;2023-06-01T21:18:53;8.57;;;4.53;;
14992;SDS011;7592;51.088;13.732;2023-06-01T21:23:46;6.10;;;4.60;;
14992;SDS011;7592;51.088;13.732;2023-06-01T21:28:38;5.80;;;4.33;;
14992;SDS011;7592;51.088;13.732;2023-06-01T21:33:30;8.87;;;5.07;;
14992;SDS011;7592;51.088;13.732;2023-06-01T21:38:23;5.50;;;4.40;;
14992;SDS011;7592;51.088;13.732;2023-06-01T21:43:15;7.03;;;4.63;;
14992;SDS011;7592;51.088;13.732;2023-06-01T21:48:09;5.33;;;3.80;;
14992;SDS011;7592;51.088;13.732;2023-06-01T21:53:01;5.00;;;4.50;;
14992;SDS011;7592;51.088;13.732;2023-06-01T21:57:54;8.97;;;4.70;;
14992;SDS011;7592;51.088;13.732;2023-06-01T22:02:47;5.80;;;4.67;;
14992;SDS011;7592;51.088;13.732;2023-06-01T22:07:39;5.07;;;4.30;;
14992;SDS011;7592;51.088;13.732;2023-06-01T22:12:32;5.87;;;4.43;;
14992;SDS011;7592;51.088;13.732;2023-06-01T22:17:25;6.23;;;4.40;;
14992;SDS011;7592;51.088;13.732;2023-06-01T22:22:18;8.00;;;4.73;;
14992;SDS011;7592;51.088;13.732;2023-06-01T22:27:10;6.80;;;4.27;;
14992;SDS011;7592;51.088;13.732;2023-06-01T22:32:03;6.50;;;4.47;;
14992;SDS011;7592;51.088;13.732;2023-06-01T22:36:56;5.60;;;4.00;;
14992;SDS011;7592;51.088;13.732;2023-06-01T22:41:48;11.80;;;4.90;;
14992;SDS011;7592;51.088;13.732;2023-06-01T22:46:41;5.10;;;3.93;;
14992;SDS011;7592;51.088;13.732;2023-06-01T22:51:34;4.43;;;4.03;;
14992;SDS011;7592;51.088;13.732;2023-06-01T22:56:27;7.80;;;4.60;;
14992;SDS011;7592;51.088;13.732;2023-06-01T23:01:19;5.40;;;4.60;;
14992;SDS011;7592;51.088;13.732;2023-06-01T23:06:11;6.80;;;4.33;;
14992;SDS011;7592;51.088;13.732;2023-06-01T23:11:05;9.30;;;5.27;;
14992;SDS011;7592;51.088;13.732;2023-06-01T23:16:00;7.40;;;5.13;;
14992;SDS011;7592;51.088;13.732;2023-06-01T23:20:53;6.40;;;4.77;;
14992;SDS011;7592;51.088;13.732;2023-06-01T23:25:46;5.00;;;4.50;;
14992;SDS011;7592;51.088;13.732;2023-06-01T23:30:38;6.27;;;4.47;;
14992;SDS011;7592;51.088;13.732;2023-06-01T23:35:30;6.90;;;4.80;;
14992;SDS011;7592;51.088;13.732;2023-06-01T23:40:22;5.37;;;4.40;;
14992;SDS011;7592;51.088;13.732;2023-06-01T23:45:15;11.40;;;4.93;;
14992;SDS011;7592;51.088;13.732;2023-06-01T23:50:07;8.20;;;5.20;;
14992;SDS011;7592;51.088;13.732;2023-06-01T23:55:03;5.83;;;4.53;;
14992;SDS011;7592;51.088;13.732;2023-06-01T23:59:56;8.07;;;5.00;;
